sensor_id;sensor_type;location;lat;lon;timestamp;P1;durP1;ratioP1;P2;durP2;ratioP2
53545;SDS011;39432;51.902;10.844;2023-03-31T00:00:32;6.28;;;1.13;;
53545;SDS011;39432;51.902;10.844;2023-03-31T00:03:02;4.15;;;0.80;;
53545;SDS011;39432;51.902;10.844;2023-03-31T00:05:35;5.10;;;1.10;;
53545;SDS011;39432;51.902;10.844;2023-03-31T00:08:05;2.83;;;1.00;;
53545;SDS011;39432;51.902;10.844;2023-03-31T00:10:35;3.63;;;0.80;;
53545;SDS011;39432;51.902;10.844;2023-03-31T00:13:08;5.05;;;1.02;;
53545;SDS011;39432;51.902;10.844;2023-03-31T00:15:40;5.07;;;1.50;;
53545;SDS011;39432;51.902;10.844;2023-03-31T00:18:10;4.28;;;1.10;;
53545;SDS011;39432;51.902;10.844;2023-03-31T00:20:40;5.22;;;1.20;;
53545;SDS011;39432;51.902;10.844;2023-03-31T00:23:10;5.63;;;1.10;;
53545;SDS011;39432;51.902;10.844;2023-03-31T00:25:40;4.60;;;1.10;;
53545;SDS011;39432;51.902;10.844;2023-03-31T00:28:10;6.10;;;1.10;;
53545;SDS011;39432;51.902;10.844;2023-03-31T00:30:42;5.30;;;1.25;;
53545;SDS011;39432;51.902;10.844;2023-03-31T00:33:13;5.47;;;1.40;;
53545;SDS011;39432;51.902;10.844;2023-03-31T00:35:42;4.45;;;1.10;;
53545;SDS011;39432;51.902;10.844;2023-03-31T00:38:12;5.68;;;1.20;;
53545;SDS011;39432;51.902;10.844;2023-03-31T00:40:45;4.32;;;1.13;;
53545;SDS011;39432;51.902;10.844;2023-03-31T00:43:24;4.68;;;1.13;;
53545;SDS011;39432;51.902;10.844;2023-03-31T00:46:05;3.88;;;1.20;;
53545;SDS011;39432;51.902;10.844;2023-03-31T00:48:45;3.55;;;1.10;;
53545;SDS011;39432;51.902;10.844;2023-03-31T00:51:17;5.45;;;1.08;;
53545;SDS011;39432;51.902;10.844;2023-03-31T00:53:49;4.15;;;1.13;;
53545;SDS011;39432;51.902;10.844;2023-03-31T00:56:25;5.13;;;1.35;;
53545;SDS011;39432;51.902;10.844;2023-03-31T00:59:01;5.60;;;1.20;;
53545;SDS011;39432;51.902;10.844;2023-03-31T01:01:36;4.78;;;1.15;;
53545;SDS011;39432;51.902;10.844;2023-03-31T01:04:08;5.38;;;1.08;;
53545;SDS011;39432;51.902;10.844;2023-03-31T01:06:43;7.53;;;1.60;;
53545;SDS011;39432;51.902;10.844;2023-03-31T01:09:23;7.80;;;1.00;;
53545;SDS011;39432;51.902;10.844;2023-03-31T01:11:56;6.95;;;1.00;;
53545;SDS011;39432;51.902;10.844;2023-03-31T01:14:26;6.30;;;1.17;;
53545;SDS011;39432;51.902;10.844;2023-03-31T01:16:59;4.22;;;0.90;;
53545;SDS011;39432;51.902;10.844;2023-03-31T01:22:42;5.93;;;1.00;;
53545;SDS011;39432;51.902;10.844;2023-03-31T01:25:48;7.68;;;1.00;;
53545;SDS011;39432;51.902;10.844;2023-03-31T01:28:37;4.95;;;1.20;;
53545;SDS011;39432;51.902;10.844;2023-03-31T01:37:52;3.80;;;1.00;;
53545;SDS011;39432;51.902;10.844;2023-03-31T01:40:50;3.17;;;0.80;;
53545;SDS011;39432;51.902;10.844;2023-03-31T01:43:32;6.18;;;1.20;;
53545;SDS011;39432;51.902;10.844;2023-03-31T01:46:09;5.68;;;1.13;;
53545;SDS011;39432;51.902;10.844;2023-03-31T01:48:51;3.58;;;1.23;;
53545;SDS011;39432;51.902;10.844;2023-03-31T01:51:30;4.82;;;1.00;;
53545;SDS011;39432;51.902;10.844;2023-03-31T01:54:06;1.65;;;0.55;;
53545;SDS011;39432;51.902;10.844;2023-03-31T01:56:47;5.50;;;1.02;;
53545;SDS011;39432;51.902;10.844;2023-03-31T01:59:22;3.67;;;1.20;;
53545;SDS011;39432;51.902;10.844;2023-03-31T02:01:56;5.57;;;0.85;;
53545;SDS011;39432;51.902;10.844;2023-03-31T02:04:30;3.83;;;1.02;;
53545;SDS011;39432;51.902;10.844;2023-03-31T02:07:08;4.45;;;0.95;;
53545;SDS011;39432;51.902;10.844;2023-03-31T02:09:43;2.90;;;0.80;;
53545;SDS011;39432;51.902;10.844;2023-03-31T02:12:20;6.03;;;1.02;;
53545;SDS011;39432;51.902;10.844;2023-03-31T02:14:53;3.95;;;1.30;;
53545;SDS011;39432;51.902;10.844;2023-03-31T02:17:25;3.58;;;1.23;;
53545;SDS011;39432;51.902;10.844;2023-03-31T02:19:58;7.15;;;0.90;;
53545;SDS011;39432;51.902;10.844;2023-03-31T02:22:35;2.90;;;1.02;;
53545;SDS011;39432;51.902;10.844;2023-03-31T02:25:08;4.38;;;1.10;;
53545;SDS011;39432;51.902;10.844;2023-03-31T02:27:44;5.70;;;1.42;;
53545;SDS011;39432;51.902;10.844;2023-03-31T02:30:18;4.70;;;1.00;;
53545;SDS011;39432;51.902;10.844;2023-03-31T02:32:48;5.20;;;1.35;;
53545;SDS011;39432;51.902;10.844;2023-03-31T02:35:19;5.68;;;1.17;;
53545;SDS011;39432;51.902;10.844;2023-03-31T02:37:50;4.38;;;0.85;;
53545;SDS011;39432;51.902;10.844;2023-03-31T02:40:21;5.63;;;1.20;;
53545;SDS011;39432;51.902;10.844;2023-03-31T02:42:56;6.13;;;1.23;;
53545;SDS011;39432;51.902;10.844;2023-03-31T02:45:36;3.47;;;0.98;;
53545;SDS011;39432;51.902;10.844;2023-03-31T02:48:13;4.72;;;1.00;;
53545;SDS011;39432;51.902;10.844;2023-03-31T02:57:16;7.43;;;1.40;;
53545;SDS011;39432;51.902;10.844;2023-03-31T03:00:00;4.30;;;1.00;;
53545;SDS011;39432;51.902;10.844;2023-03-31T03:02:45;5.32;;;1.25;;
53545;SDS011;39432;51.902;10.844;2023-03-31T03:05:24;5.35;;;0.80;;
53545;SDS011;39432;51.902;10.844;2023-03-31T03:08:22;5.60;;;1.60;;
53545;SDS011;39432;51.902;10.844;2023-03-31T03:11:01;5.07;;;1.42;;
53545;SDS011;39432;51.902;10.844;2023-03-31T03:13:38;4.35;;;1.23;;
53545;SDS011;39432;51.902;10.844;2023-03-31T03:16:17;12.70;;;1.73;;
53545;SDS011;39432;51.902;10.844;2023-03-31T03:18:56;5.40;;;1.30;;
53545;SDS011;39432;51.902;10.844;2023-03-31T03:21:27;11.15;;;4.15;;
53545;SDS011;39432;51.902;10.844;2023-03-31T03:23:57;12.52;;;5.95;;
53545;SDS011;39432;51.902;10.844;2023-03-31T03:26:27;14.75;;;7.35;;
53545;SDS011;39432;51.902;10.844;2023-03-31T03:29:00;17.15;;;7.68;;
53545;SDS011;39432;51.902;10.844;2023-03-31T03:31:33;8.90;;;3.83;;
53545;SDS011;39432;51.902;10.844;2023-03-31T03:34:02;8.95;;;3.83;;
53545;SDS011;39432;51.902;10.844;2023-03-31T03:36:32;9.90;;;4.03;;
53545;SDS011;39432;51.902;10.844;2023-03-31T03:39:03;7.13;;;2.70;;
53545;SDS011;39432;51.902;10.844;2023-03-31T03:41:33;9.02;;;1.40;;
53545;SDS011;39432;51.902;10.844;2023-03-31T03:44:04;10.35;;;1.52;;
53545;SDS011;39432;51.902;10.844;2023-03-31T03:46:36;6.32;;;1.83;;
53545;SDS011;39432;51.902;10.844;2023-03-31T03:49:06;7.30;;;1.73;;
53545;SDS011;39432;51.902;10.844;2023-03-31T03:51:35;4.50;;;1.15;;
53545;SDS011;39432;51.902;10.844;2023-03-31T03:54:05;9.00;;;1.40;;
53545;SDS011;39432;51.902;10.844;2023-03-31T03:56:35;5.18;;;1.20;;
53545;SDS011;39432;51.902;10.844;2023-03-31T03:59:05;6.28;;;1.40;;
53545;SDS011;39432;51.902;10.844;2023-03-31T04:01:37;5.10;;;1.15;;
53545;SDS011;39432;51.902;10.844;2023-03-31T04:04:07;4.78;;;1.00;;
53545;SDS011;39432;51.902;10.844;2023-03-31T04:06:37;5.35;;;1.30;;
53545;SDS011;39432;51.902;10.844;2023-03-31T04:09:07;12.30;;;1.63;;
53545;SDS011;39432;51.902;10.844;2023-03-31T04:11:37;4.43;;;1.20;;
53545;SDS011;39432;51.902;10.844;2023-03-31T04:14:06;7.85;;;1.55;;
53545;SDS011;39432;51.902;10.844;2023-03-31T04:16:39;5.20;;;1.10;;
53545;SDS011;39432;51.902;10.844;2023-03-31T04:19:12;5.45;;;1.17;;
53545;SDS011;39432;51.902;10.844;2023-03-31T04:21:43;7.47;;;1.08;;
53545;SDS011;39432;51.902;10.844;2023-03-31T04:24:16;7.97;;;1.15;;
53545;SDS011;39432;51.902;10.844;2023-03-31T04:26:49;7.03;;;1.35;;
53545;SDS011;39432;51.902;10.844;2023-03-31T04:29:20;11.43;;;1.83;;
53545;SDS011;39432;51.902;10.844;2023-03-31T04:31:55;5.28;;;1.38;;
53545;SDS011;39432;51.902;10.844;2023-03-31T04:34:25;12.40;;;1.58;;
53545;SDS011;39432;51.902;10.844;2023-03-31T04:37:01;9.02;;;1.55;;
53545;SDS011;39432;51.902;10.844;2023-03-31T04:39:36;11.68;;;1.40;;
53545;SDS011;39432;51.902;10.844;2023-03-31T04:42:06;8.55;;;1.52;;
53545;SDS011;39432;51.902;10.844;2023-03-31T04:44:35;6.15;;;1.67;;
53545;SDS011;39432;51.902;10.844;2023-03-31T04:47:08;4.00;;;0.98;;
53545;SDS011;39432;51.902;10.844;2023-03-31T04:49:37;5.28;;;1.00;;
53545;SDS011;39432;51.902;10.844;2023-03-31T04:52:07;3.20;;;1.00;;
53545;SDS011;39432;51.902;10.844;2023-03-31T04:54:37;3.42;;;0.85;;
53545;SDS011;39432;51.902;10.844;2023-03-31T04:57:07;5.13;;;0.98;;
53545;SDS011;39432;51.902;10.844;2023-03-31T04:59:36;5.25;;;1.38;;
53545;SDS011;39432;51.902;10.844;2023-03-31T05:02:09;4.72;;;1.38;;
53545;SDS011;39432;51.902;10.844;2023-03-31T05:04:39;7.68;;;1.15;;
53545;SDS011;39432;51.902;10.844;2023-03-31T05:07:08;9.93;;;1.45;;
53545;SDS011;39432;51.902;10.844;2023-03-31T05:09:38;6.88;;;1.67;;
53545;SDS011;39432;51.902;10.844;2023-03-31T05:12:08;3.72;;;1.15;;
53545;SDS011;39432;51.902;10.844;2023-03-31T05:14:38;8.70;;;1.10;;
53545;SDS011;39432;51.902;10.844;2023-03-31T05:17:10;12.10;;;1.83;;
53545;SDS011;39432;51.902;10.844;2023-03-31T05:19:40;20.23;;;1.65;;
53545;SDS011;39432;51.902;10.844;2023-03-31T05:22:09;6.18;;;1.10;;
53545;SDS011;39432;51.902;10.844;2023-03-31T05:24:39;9.50;;;1.60;;
53545;SDS011;39432;51.902;10.844;2023-03-31T05:27:09;4.57;;;1.30;;
53545;SDS011;39432;51.902;10.844;2023-03-31T05:29:38;4.53;;;1.10;;
53545;SDS011;39432;51.902;10.844;2023-03-31T05:32:11;5.22;;;0.80;;
53545;SDS011;39432;51.902;10.844;2023-03-31T05:34:41;4.38;;;1.00;;
53545;SDS011;39432;51.902;10.844;2023-03-31T05:37:11;6.13;;;0.90;;
53545;SDS011;39432;51.902;10.844;2023-03-31T05:39:41;6.18;;;0.90;;
53545;SDS011;39432;51.902;10.844;2023-03-31T05:42:11;3.78;;;1.02;;
53545;SDS011;39432;51.902;10.844;2023-03-31T05:44:41;4.90;;;0.85;;
53545;SDS011;39432;51.902;10.844;2023-03-31T05:47:13;7.93;;;2.00;;
53545;SDS011;39432;51.902;10.844;2023-03-31T05:49:43;7.07;;;2.28;;
53545;SDS011;39432;51.902;10.844;2023-03-31T05:52:13;7.70;;;2.10;;
53545;SDS011;39432;51.902;10.844;2023-03-31T05:54:43;7.70;;;2.60;;
53545;SDS011;39432;51.902;10.844;2023-03-31T05:57:13;6.13;;;1.65;;
53545;SDS011;39432;51.902;10.844;2023-03-31T05:59:42;8.10;;;1.20;;
53545;SDS011;39432;51.902;10.844;2023-03-31T06:02:17;8.63;;;1.20;;
53545;SDS011;39432;51.902;10.844;2023-03-31T06:04:47;12.15;;;0.95;;
53545;SDS011;39432;51.902;10.844;2023-03-31T06:07:17;3.22;;;1.10;;
53545;SDS011;39432;51.902;10.844;2023-03-31T06:09:48;6.05;;;1.13;;
53545;SDS011;39432;51.902;10.844;2023-03-31T06:12:17;9.43;;;1.30;;
53545;SDS011;39432;51.902;10.844;2023-03-31T06:14:47;7.25;;;1.05;;
53545;SDS011;39432;51.902;10.844;2023-03-31T06:17:19;6.97;;;0.90;;
53545;SDS011;39432;51.902;10.844;2023-03-31T06:19:49;6.85;;;1.27;;
53545;SDS011;39432;51.902;10.844;2023-03-31T06:22:19;7.55;;;1.17;;
53545;SDS011;39432;51.902;10.844;2023-03-31T06:24:49;4.75;;;1.30;;
53545;SDS011;39432;51.902;10.844;2023-03-31T06:27:19;3.38;;;1.05;;
53545;SDS011;39432;51.902;10.844;2023-03-31T06:29:48;8.25;;;1.40;;
53545;SDS011;39432;51.902;10.844;2023-03-31T06:32:21;5.75;;;1.05;;
53545;SDS011;39432;51.902;10.844;2023-03-31T06:34:51;2.05;;;0.80;;
53545;SDS011;39432;51.902;10.844;2023-03-31T06:37:21;4.97;;;0.95;;
53545;SDS011;39432;51.902;10.844;2023-03-31T06:39:51;3.80;;;0.70;;
53545;SDS011;39432;51.902;10.844;2023-03-31T06:42:21;6.40;;;0.90;;
53545;SDS011;39432;51.902;10.844;2023-03-31T06:44:51;3.38;;;0.70;;
53545;SDS011;39432;51.902;10.844;2023-03-31T06:47:23;5.47;;;0.73;;
53545;SDS011;39432;51.902;10.844;2023-03-31T06:49:53;2.20;;;0.63;;
53545;SDS011;39432;51.902;10.844;2023-03-31T06:52:23;4.80;;;1.05;;
53545;SDS011;39432;51.902;10.844;2023-03-31T06:54:53;7.30;;;0.90;;
53545;SDS011;39432;51.902;10.844;2023-03-31T06:57:22;4.03;;;1.00;;
53545;SDS011;39432;51.902;10.844;2023-03-31T06:59:52;3.25;;;0.88;;
53545;SDS011;39432;51.902;10.844;2023-03-31T07:02:25;2.67;;;0.68;;
53545;SDS011;39432;51.902;10.844;2023-03-31T07:04:55;1.98;;;0.60;;
53545;SDS011;39432;51.902;10.844;2023-03-31T07:07:24;4.63;;;0.95;;
53545;SDS011;39432;51.902;10.844;2023-03-31T07:09:54;3.33;;;0.80;;
53545;SDS011;39432;51.902;10.844;2023-03-31T07:12:24;4.05;;;0.80;;
53545;SDS011;39432;51.902;10.844;2023-03-31T07:14:54;4.93;;;1.05;;
53545;SDS011;39432;51.902;10.844;2023-03-31T07:17:26;9.45;;;1.60;;
53545;SDS011;39432;51.902;10.844;2023-03-31T07:19:56;5.25;;;0.90;;
53545;SDS011;39432;51.902;10.844;2023-03-31T07:22:26;4.15;;;1.00;;
53545;SDS011;39432;51.902;10.844;2023-03-31T07:24:55;6.95;;;1.13;;
53545;SDS011;39432;51.902;10.844;2023-03-31T07:27:25;3.78;;;0.80;;
53545;SDS011;39432;51.902;10.844;2023-03-31T07:29:55;5.32;;;1.00;;
53545;SDS011;39432;51.902;10.844;2023-03-31T07:32:27;4.60;;;0.90;;
53545;SDS011;39432;51.902;10.844;2023-03-31T07:34:57;2.65;;;0.80;;
53545;SDS011;39432;51.902;10.844;2023-03-31T07:37:27;7.43;;;3.13;;
53545;SDS011;39432;51.902;10.844;2023-03-31T07:39:57;5.88;;;1.40;;
53545;SDS011;39432;51.902;10.844;2023-03-31T07:42:26;4.53;;;1.10;;
53545;SDS011;39432;51.902;10.844;2023-03-31T07:44:56;8.73;;;1.42;;
53545;SDS011;39432;51.902;10.844;2023-03-31T07:47:29;3.65;;;1.35;;
53545;SDS011;39432;51.902;10.844;2023-03-31T07:49:59;4.32;;;1.02;;
53545;SDS011;39432;51.902;10.844;2023-03-31T07:52:28;9.30;;;1.40;;
53545;SDS011;39432;51.902;10.844;2023-03-31T07:54:58;2.53;;;0.85;;
53545;SDS011;39432;51.902;10.844;2023-03-31T07:57:29;3.60;;;0.90;;
53545;SDS011;39432;51.902;10.844;2023-03-31T07:59:59;2.88;;;1.00;;
53545;SDS011;39432;51.902;10.844;2023-03-31T08:02:40;2.70;;;0.75;;
53545;SDS011;39432;51.902;10.844;2023-03-31T08:05:11;6.18;;;1.10;;
53545;SDS011;39432;51.902;10.844;2023-03-31T08:07:44;6.38;;;1.95;;
53545;SDS011;39432;51.902;10.844;2023-03-31T08:10:16;5.93;;;1.30;;
53545;SDS011;39432;51.902;10.844;2023-03-31T08:12:48;4.82;;;1.20;;
53545;SDS011;39432;51.902;10.844;2023-03-31T08:15:17;5.70;;;1.38;;
53545;SDS011;39432;51.902;10.844;2023-03-31T08:17:50;3.92;;;1.00;;
53545;SDS011;39432;51.902;10.844;2023-03-31T08:20:19;3.67;;;0.85;;
53545;SDS011;39432;51.902;10.844;2023-03-31T08:22:49;6.90;;;1.30;;
53545;SDS011;39432;51.902;10.844;2023-03-31T08:25:19;6.28;;;1.00;;
53545;SDS011;39432;51.902;10.844;2023-03-31T08:27:49;4.80;;;1.20;;
53545;SDS011;39432;51.902;10.844;2023-03-31T08:30:19;3.03;;;1.05;;
53545;SDS011;39432;51.902;10.844;2023-03-31T08:32:51;2.72;;;0.98;;
53545;SDS011;39432;51.902;10.844;2023-03-31T08:35:22;4.28;;;0.85;;
53545;SDS011;39432;51.902;10.844;2023-03-31T08:37:52;5.15;;;1.00;;
53545;SDS011;39432;51.902;10.844;2023-03-31T08:40:22;4.88;;;1.38;;
53545;SDS011;39432;51.902;10.844;2023-03-31T08:42:54;4.80;;;1.00;;
53545;SDS011;39432;51.902;10.844;2023-03-31T08:45:29;2.28;;;0.75;;
53545;SDS011;39432;51.902;10.844;2023-03-31T08:48:05;2.50;;;0.93;;
53545;SDS011;39432;51.902;10.844;2023-03-31T08:50:44;6.30;;;1.50;;
53545;SDS011;39432;51.902;10.844;2023-03-31T08:53:24;6.47;;;1.27;;
53545;SDS011;39432;51.902;10.844;2023-03-31T08:55:57;3.58;;;0.93;;
53545;SDS011;39432;51.902;10.844;2023-03-31T08:58:30;3.83;;;1.00;;
53545;SDS011;39432;51.902;10.844;2023-03-31T09:01:07;2.25;;;0.65;;
53545;SDS011;39432;51.902;10.844;2023-03-31T09:03:48;3.85;;;0.90;;
53545;SDS011;39432;51.902;10.844;2023-03-31T09:06:38;1.90;;;0.70;;
53545;SDS011;39432;51.902;10.844;2023-03-31T09:09:14;4.03;;;0.85;;
53545;SDS011;39432;51.902;10.844;2023-03-31T09:11:52;2.45;;;0.75;;
53545;SDS011;39432;51.902;10.844;2023-03-31T09:14:27;2.78;;;1.10;;
53545;SDS011;39432;51.902;10.844;2023-03-31T09:17:06;4.18;;;1.17;;
53545;SDS011;39432;51.902;10.844;2023-03-31T09:19:48;4.88;;;1.02;;
53545;SDS011;39432;51.902;10.844;2023-03-31T09:22:21;4.07;;;1.83;;
53545;SDS011;39432;51.902;10.844;2023-03-31T09:24:54;2.90;;;1.10;;
53545;SDS011;39432;51.902;10.844;2023-03-31T09:27:29;4.60;;;0.90;;
53545;SDS011;39432;51.902;10.844;2023-03-31T09:30:04;12.60;;;1.83;;
53545;SDS011;39432;51.902;10.844;2023-03-31T09:32:41;2.53;;;0.80;;
53545;SDS011;39432;51.902;10.844;2023-03-31T09:35:16;5.75;;;1.40;;
53545;SDS011;39432;51.902;10.844;2023-03-31T09:37:48;5.40;;;2.10;;
53545;SDS011;39432;51.902;10.844;2023-03-31T09:40:19;7.40;;;3.10;;
53545;SDS011;39432;51.902;10.844;2023-03-31T09:42:52;2.45;;;0.60;;
53545;SDS011;39432;51.902;10.844;2023-03-31T09:45:24;1.08;;;0.40;;
53545;SDS011;39432;51.902;10.844;2023-03-31T09:47:56;1.65;;;0.50;;
53545;SDS011;39432;51.902;10.844;2023-03-31T09:50:32;3.50;;;0.63;;
53545;SDS011;39432;51.902;10.844;2023-03-31T09:53:10;0.88;;;0.30;;
53545;SDS011;39432;51.902;10.844;2023-03-31T09:55:46;2.13;;;0.70;;
53545;SDS011;39432;51.902;10.844;2023-03-31T09:58:22;1.45;;;0.40;;
53545;SDS011;39432;51.902;10.844;2023-03-31T10:00:57;2.10;;;1.00;;
53545;SDS011;39432;51.902;10.844;2023-03-31T10:03:29;1.02;;;0.43;;
53545;SDS011;39432;51.902;10.844;2023-03-31T10:06:09;1.55;;;0.60;;
53545;SDS011;39432;51.902;10.844;2023-03-31T10:08:43;2.72;;;1.27;;
53545;SDS011;39432;51.902;10.844;2023-03-31T10:11:21;6.68;;;0.85;;
53545;SDS011;39432;51.902;10.844;2023-03-31T10:13:54;6.38;;;1.88;;
53545;SDS011;39432;51.902;10.844;2023-03-31T10:16:30;2.22;;;0.57;;
53545;SDS011;39432;51.902;10.844;2023-03-31T10:19:11;1.27;;;0.50;;
53545;SDS011;39432;51.902;10.844;2023-03-31T10:21:47;2.10;;;0.60;;
53545;SDS011;39432;51.902;10.844;2023-03-31T10:24:23;1.60;;;0.60;;
53545;SDS011;39432;51.902;10.844;2023-03-31T10:26:54;4.57;;;0.98;;
53545;SDS011;39432;51.902;10.844;2023-03-31T10:29:27;1.17;;;0.40;;
53545;SDS011;39432;51.902;10.844;2023-03-31T10:32:02;1.67;;;0.63;;
53545;SDS011;39432;51.902;10.844;2023-03-31T10:34:33;1.23;;;0.60;;
53545;SDS011;39432;51.902;10.844;2023-03-31T10:37:13;1.90;;;0.55;;
53545;SDS011;39432;51.902;10.844;2023-03-31T10:39:46;1.05;;;0.52;;
53545;SDS011;39432;51.902;10.844;2023-03-31T10:42:19;3.80;;;0.77;;
53545;SDS011;39432;51.902;10.844;2023-03-31T10:44:51;1.67;;;0.50;;
53545;SDS011;39432;51.902;10.844;2023-03-31T10:47:56;2.00;;;1.17;;
53545;SDS011;39432;51.902;10.844;2023-03-31T10:50:28;1.52;;;0.70;;
53545;SDS011;39432;51.902;10.844;2023-03-31T10:53:03;1.60;;;0.88;;
53545;SDS011;39432;51.902;10.844;2023-03-31T10:55:35;2.08;;;0.70;;
53545;SDS011;39432;51.902;10.844;2023-03-31T10:58:18;2.53;;;1.00;;
53545;SDS011;39432;51.902;10.844;2023-03-31T11:01:00;1.75;;;0.90;;
53545;SDS011;39432;51.902;10.844;2023-03-31T11:03:44;2.45;;;0.80;;
53545;SDS011;39432;51.902;10.844;2023-03-31T11:06:27;1.25;;;0.50;;
53545;SDS011;39432;51.902;10.844;2023-03-31T11:09:12;1.77;;;0.60;;
53545;SDS011;39432;51.902;10.844;2023-03-31T11:11:57;2.30;;;1.40;;
53545;SDS011;39432;51.902;10.844;2023-03-31T11:14:37;2.25;;;0.90;;
53545;SDS011;39432;51.902;10.844;2023-03-31T11:17:17;2.40;;;1.33;;
53545;SDS011;39432;51.902;10.844;2023-03-31T11:19:58;2.85;;;1.67;;
53545;SDS011;39432;51.902;10.844;2023-03-31T11:22:40;3.40;;;1.42;;
53545;SDS011;39432;51.902;10.844;2023-03-31T11:25:19;3.00;;;1.10;;
53545;SDS011;39432;51.902;10.844;2023-03-31T11:28:10;1.52;;;0.73;;
53545;SDS011;39432;51.902;10.844;2023-03-31T11:36:29;2.65;;;1.38;;
53545;SDS011;39432;51.902;10.844;2023-03-31T11:39:14;6.73;;;3.77;;
53545;SDS011;39432;51.902;10.844;2023-03-31T11:41:57;3.10;;;1.20;;
53545;SDS011;39432;51.902;10.844;2023-03-31T11:44:30;0.57;;;0.40;;
53545;SDS011;39432;51.902;10.844;2023-03-31T11:47:09;10.98;;;0.80;;
53545;SDS011;39432;51.902;10.844;2023-03-31T11:49:47;1.77;;;0.80;;
53545;SDS011;39432;51.902;10.844;2023-03-31T11:52:23;0.73;;;0.40;;
53545;SDS011;39432;51.902;10.844;2023-03-31T11:54:58;1.13;;;0.57;;
53545;SDS011;39432;51.902;10.844;2023-03-31T11:57:35;3.13;;;0.98;;
53545;SDS011;39432;51.902;10.844;2023-03-31T12:00:11;0.60;;;0.30;;
53545;SDS011;39432;51.902;10.844;2023-03-31T12:05:19;2.03;;;0.98;;
53545;SDS011;39432;51.902;10.844;2023-03-31T12:07:56;1.63;;;0.60;;
53545;SDS011;39432;51.902;10.844;2023-03-31T12:10:32;1.20;;;0.40;;
53545;SDS011;39432;51.902;10.844;2023-03-31T12:13:08;1.67;;;0.40;;
53545;SDS011;39432;51.902;10.844;2023-03-31T12:16:00;1.48;;;0.50;;
53545;SDS011;39432;51.902;10.844;2023-03-31T12:18:35;0.75;;;0.40;;
53545;SDS011;39432;51.902;10.844;2023-03-31T12:21:09;0.93;;;0.60;;
53545;SDS011;39432;51.902;10.844;2023-03-31T12:23:40;2.30;;;1.30;;
53545;SDS011;39432;51.902;10.844;2023-03-31T12:26:16;1.70;;;0.75;;
53545;SDS011;39432;51.902;10.844;2023-03-31T12:29:04;1.13;;;0.63;;
53545;SDS011;39432;51.902;10.844;2023-03-31T12:31:41;2.40;;;1.15;;
53545;SDS011;39432;51.902;10.844;2023-03-31T12:34:14;2.60;;;0.50;;
53545;SDS011;39432;51.902;10.844;2023-03-31T12:36:50;1.70;;;0.60;;
53545;SDS011;39432;51.902;10.844;2023-03-31T12:39:38;1.70;;;0.50;;
53545;SDS011;39432;51.902;10.844;2023-03-31T12:42:30;2.17;;;0.90;;
53545;SDS011;39432;51.902;10.844;2023-03-31T12:45:19;7.93;;;3.03;;
53545;SDS011;39432;51.902;10.844;2023-03-31T12:50:51;11.40;;;4.43;;
53545;SDS011;39432;51.902;10.844;2023-03-31T12:53:28;18.23;;;5.82;;
53545;SDS011;39432;51.902;10.844;2023-03-31T12:56:05;9.35;;;4.70;;
53545;SDS011;39432;51.902;10.844;2023-03-31T12:58:42;3.08;;;1.10;;
53545;SDS011;39432;51.902;10.844;2023-03-31T13:01:17;7.50;;;3.35;;
53545;SDS011;39432;51.902;10.844;2023-03-31T13:03:52;18.17;;;9.38;;
53545;SDS011;39432;51.902;10.844;2023-03-31T13:09:38;8.38;;;2.78;;
53545;SDS011;39432;51.902;10.844;2023-03-31T13:12:16;3.20;;;0.77;;
53545;SDS011;39432;51.902;10.844;2023-03-31T13:14:48;1.38;;;0.70;;
53545;SDS011;39432;51.902;10.844;2023-03-31T13:17:24;1.08;;;0.47;;
53545;SDS011;39432;51.902;10.844;2023-03-31T13:19:56;1.58;;;0.80;;
53545;SDS011;39432;51.902;10.844;2023-03-31T13:22:45;1.05;;;0.50;;
53545;SDS011;39432;51.902;10.844;2023-03-31T13:25:34;0.60;;;0.40;;
53545;SDS011;39432;51.902;10.844;2023-03-31T13:28:15;1.25;;;0.40;;
53545;SDS011;39432;51.902;10.844;2023-03-31T13:31:09;1.23;;;0.40;;
53545;SDS011;39432;51.902;10.844;2023-03-31T13:33:44;1.42;;;0.47;;
53545;SDS011;39432;51.902;10.844;2023-03-31T13:42:52;1.58;;;0.50;;
53545;SDS011;39432;51.902;10.844;2023-03-31T13:48:38;2.78;;;0.50;;
53545;SDS011;39432;51.902;10.844;2023-03-31T13:51:18;2.45;;;0.65;;
53545;SDS011;39432;51.902;10.844;2023-03-31T13:54:03;2.17;;;0.50;;
53545;SDS011;39432;51.902;10.844;2023-03-31T13:56:54;3.28;;;0.90;;
53545;SDS011;39432;51.902;10.844;2023-03-31T13:59:50;1.93;;;0.50;;
53545;SDS011;39432;51.902;10.844;2023-03-31T14:02:46;3.63;;;1.02;;
53545;SDS011;39432;51.902;10.844;2023-03-31T14:05:32;2.20;;;0.70;;
53545;SDS011;39432;51.902;10.844;2023-03-31T14:08:06;1.70;;;0.73;;
53545;SDS011;39432;51.902;10.844;2023-03-31T14:10:40;3.67;;;1.10;;
53545;SDS011;39432;51.902;10.844;2023-03-31T14:13:11;2.75;;;1.00;;
53545;SDS011;39432;51.902;10.844;2023-03-31T14:15:45;2.42;;;0.88;;
53545;SDS011;39432;51.902;10.844;2023-03-31T14:18:18;2.70;;;0.63;;
53545;SDS011;39432;51.902;10.844;2023-03-31T14:20:57;2.10;;;0.63;;
53545;SDS011;39432;51.902;10.844;2023-03-31T14:23:48;3.55;;;0.90;;
53545;SDS011;39432;51.902;10.844;2023-03-31T14:26:33;2.63;;;0.70;;
53545;SDS011;39432;51.902;10.844;2023-03-31T14:29:22;1.38;;;0.70;;
53545;SDS011;39432;51.902;10.844;2023-03-31T14:31:57;2.47;;;0.70;;
53545;SDS011;39432;51.902;10.844;2023-03-31T14:34:43;1.83;;;0.68;;
53545;SDS011;39432;51.902;10.844;2023-03-31T14:37:34;3.75;;;1.67;;
53545;SDS011;39432;51.902;10.844;2023-03-31T14:40:04;3.45;;;1.20;;
53545;SDS011;39432;51.902;10.844;2023-03-31T14:42:39;4.13;;;2.70;;
53545;SDS011;39432;51.902;10.844;2023-03-31T14:45:18;6.07;;;3.03;;
53545;SDS011;39432;51.902;10.844;2023-03-31T14:47:55;4.63;;;3.08;;
53545;SDS011;39432;51.902;10.844;2023-03-31T14:53:01;3.42;;;1.90;;
53545;SDS011;39432;51.902;10.844;2023-03-31T14:55:31;7.18;;;2.92;;
53545;SDS011;39432;51.902;10.844;2023-03-31T14:58:23;3.95;;;1.60;;
53545;SDS011;39432;51.902;10.844;2023-03-31T15:00:56;4.28;;;1.17;;
53545;SDS011;39432;51.902;10.844;2023-03-31T15:03:27;3.03;;;1.08;;
53545;SDS011;39432;51.902;10.844;2023-03-31T15:05:58;3.28;;;1.13;;
53545;SDS011;39432;51.902;10.844;2023-03-31T15:08:33;3.30;;;1.00;;
53545;SDS011;39432;51.902;10.844;2023-03-31T15:11:04;2.78;;;1.05;;
53545;SDS011;39432;51.902;10.844;2023-03-31T15:16:27;1.25;;;0.80;;
53545;SDS011;39432;51.902;10.844;2023-03-31T15:19:11;2.80;;;0.80;;
53545;SDS011;39432;51.902;10.844;2023-03-31T15:21:43;3.03;;;0.95;;
53545;SDS011;39432;51.902;10.844;2023-03-31T15:24:17;2.55;;;1.60;;
53545;SDS011;39432;51.902;10.844;2023-03-31T15:26:49;18.40;;;7.22;;
53545;SDS011;39432;51.902;10.844;2023-03-31T15:29:25;34.47;;;16.40;;
53545;SDS011;39432;51.902;10.844;2023-03-31T15:32:02;12.98;;;7.68;;
53545;SDS011;39432;51.902;10.844;2023-03-31T15:34:35;9.20;;;5.78;;
53545;SDS011;39432;51.902;10.844;2023-03-31T15:37:08;8.43;;;5.07;;
53545;SDS011;39432;51.902;10.844;2023-03-31T15:39:42;12.68;;;7.70;;
53545;SDS011;39432;51.902;10.844;2023-03-31T15:42:15;8.32;;;4.80;;
53545;SDS011;39432;51.902;10.844;2023-03-31T15:44:46;9.10;;;5.10;;
53545;SDS011;39432;51.902;10.844;2023-03-31T15:47:22;9.75;;;3.17;;
53545;SDS011;39432;51.902;10.844;2023-03-31T15:49:57;6.40;;;2.97;;
53545;SDS011;39432;51.902;10.844;2023-03-31T15:52:31;8.30;;;4.22;;
53545;SDS011;39432;51.902;10.844;2023-03-31T15:57:57;9.43;;;5.25;;
53545;SDS011;39432;51.902;10.844;2023-03-31T16:00:39;7.72;;;5.18;;
53545;SDS011;39432;51.902;10.844;2023-03-31T16:03:13;13.10;;;6.78;;
53545;SDS011;39432;51.902;10.844;2023-03-31T16:05:50;4.10;;;2.30;;